Time;durP1;ratioP1;P1;durP2;ratioP2;P2;SDS_P1;SDS_P2;PMS_P1;PMS_P2;Temp;Humidity;BMP_temperature;BMP_pressure;BME280_temperature;BME280_humidity;BME280_pressure;Samples;Min_cycle;Max_cycle;Signal;HPM_P1;HPM_P2
2024/01/11 00:01:25;;;;;;;0.00;0.00;;;;;;;-145.06;100.00;55136.03;10441301;28;20321;-71
2024/01/11 00:06:26;;;;;;;0.00;0.00;;;;;;;-145.06;100.00;55107.66;10460029;28;20026;-71
2024/01/11 00:11:26;;;;;;;0.10;0.10;;;;;;;-145.06;100.00;55123.88;10461226;28;20029;-71
2024/01/11 00:16:26;;;;;;;0.00;0.00;;;;;;;-145.06;100.00;55117.78;10468315;28;20028;-70
2024/01/11 00:21:27;;;;;;;0.00;0.00;;;;;;;-145.06;100.00;55144.13;10455476;28;20029;-70
2024/01/11 00:26:27;;;;;;;0.00;0.00;;;;;;;-145.06;100.00;55146.16;10467910;28;20024;-71
2024/01/11 00:31:28;;;;;;;0.00;0.00;;;;;;;-145.06;100.00;55113.75;10462865;28;20467;-70
2024/01/11 00:36:28;;;;;;;0.00;0.00;;;;;;;-145.06;100.00;55131.97;10449604;28;20168;-71
2024/01/11 00:41:28;;;;;;;0.10;0.10;;;;;;;-145.06;100.00;55123.88;10465317;28;20025;-71
2024/01/11 00:46:28;;;;;;;0.00;0.00;;;;;;;-145.06;100.00;55121.84;10466983;28;20740;-71
2024/01/11 00:51:29;;;;;;;0.00;0.00;;;;;;;-145.06;100.00;55115.78;10462009;28;20471;-71
2024/01/11 00:56:29;;;;;;;0.00;0.00;;;;;;;-145.06;100.00;55148.19;10462951;28;20263;-71
2024/01/11 01:01:30;;;;;;;0.10;0.10;;;;;;;-145.06;100.00;55119.81;10451910;28;20012;-71
2024/01/11 01:06:30;;;;;;;0.00;0.00;;;;;;;-145.06;100.00;55121.84;10457683;28;20029;-71
2024/01/11 01:11:30;;;;;;;0.00;0.00;;;;;;;-145.06;100.00;55119.81;10447893;28;20047;-71
2024/01/11 01:16:30;;;;;;;0.10;0.10;;;;;;;-145.06;100.00;55085.38;10464877;28;20012;-71
2024/01/11 01:21:31;;;;;;;0.00;0.00;;;;;;;-145.06;100.00;55107.66;10465136;28;20017;-71
2024/01/11 01:26:31;;;;;;;0.10;0.10;;;;;;;-145.06;100.00;55138.06;10463764;28;20032;-71
2024/01/11 01:31:37;;;;;;;0.00;0.00;;;;;;;-145.06;100.00;55134.00;10463537;28;20275;-71
2024/01/11 01:36:37;;;;;;;0.00;0.00;;;;;;;-145.06;100.00;55111.72;10462190;28;20413;-71
2024/01/11 01:41:37;;;;;;;0.00;0.00;;;;;;;-145.06;100.00;55140.06;10469472;28;20017;-71
2024/01/11 01:46:38;;;;;;;0.10;0.10;;;;;;;-145.06;100.00;55136.03;10465335;28;20025;-70
2024/01/11 01:51:38;;;;;;;0.00;0.00;;;;;;;-145.06;100.00;55115.78;10463666;28;20298;-71
2024/01/11 01:56:39;;;;;;;0.00;0.00;;;;;;;-145.06;100.00;55111.72;10456409;28;20508;-71
2024/01/11 02:01:40;;;;;;;0.00;0.00;;;;;;;-145.06;100.00;55127.94;10456713;28;20107;-71
2024/01/11 02:06:41;;;;;;;0.00;0.00;;;;;;;-145.06;100.00;55079.31;10455167;28;20029;-71
2024/01/11 02:11:41;;;;;;;0.00;0.00;;;;;;;-145.06;100.00;55129.94;10456576;28;20013;-71
2024/01/11 02:16:41;;;;;;;0.00;0.00;;;;;;;-145.06;100.00;55162.38;10454043;28;20025;-71
2024/01/11 02:21:43;;;;;;;0.00;0.00;;;;;;;-145.06;100.00;55146.16;10457431;28;20025;-71
2024/01/11 02:27:03;;;;;;;0.00;0.00;;;;;;;-145.06;100.00;55152.22;10454292;28;20023;-71
2024/01/11 02:32:05;;;;;;;0.08;0.08;;;;;;;-145.06;100.00;55111.72;10457116;28;20024;-70
2024/01/11 02:37:06;;;;;;;0.08;0.08;;;;;;;-145.06;100.00;55136.03;10455372;28;20034;-71
2024/01/11 02:42:06;;;;;;;0.03;0.03;;;;;;;-145.06;100.00;55148.19;10458428;28;20484;-71
2024/01/11 02:47:07;;;;;;;0.00;0.00;;;;;;;-145.06;100.00;55174.53;10453122;28;20021;-71
2024/01/11 02:52:07;;;;;;;0.00;0.00;;;;;;;-145.06;100.00;55162.38;10453063;28;20083;-70
2024/01/11 02:57:07;;;;;;;0.03;0.03;;;;;;;-145.06;100.00;55186.66;10454232;28;20263;-71
2024/01/11 03:02:08;;;;;;;0.20;0.20;;;;;;;-145.06;100.00;55164.38;10458084;28;20025;-71
2024/01/11 03:07:08;;;;;;;0.08;0.08;;;;;;;-145.06;100.00;55182.63;10455096;28;20029;-71
2024/01/11 03:12:08;;;;;;;0.10;0.10;;;;;;;-145.06;100.00;55190.72;10451893;28;20340;-70
2024/01/11 03:17:08;;;;;;;0.13;0.13;;;;;;;-145.06;100.00;55176.53;10453261;28;20263;-71
2024/01/11 03:22:09;;;;;;;0.10;0.10;;;;;;;-145.06;100.00;55202.88;10455752;28;20267;-71
2024/01/11 03:27:09;;;;;;;0.10;0.10;;;;;;;-145.06;100.00;55176.53;10455657;28;20024;-71
2024/01/11 03:32:12;;;;;;;0.00;0.00;;;;;;;-145.06;100.00;55123.88;10454693;28;20028;-71
2024/01/11 03:37:13;;;;;;;0.17;0.17;;;;;;;-145.06;100.00;55162.38;10454129;28;20279;-71
2024/01/11 03:42:13;;;;;;;0.10;0.10;;;;;;;-145.06;100.00;55164.38;10458287;28;20028;-71
2024/01/11 03:47:13;;;;;;;0.10;0.10;;;;;;;-145.06;100.00;55156.28;10456894;28;20268;-71
2024/01/11 03:52:14;;;;;;;0.10;0.10;;;;;;;-145.06;100.00;55127.94;10434691;28;20083;-71
2024/01/11 03:57:14;;;;;;;0.00;0.00;;;;;;;-145.06;100.00;55160.34;10455771;28;20024;-71
2024/01/11 04:02:15;;;;;;;0.00;0.00;;;;;;;-145.06;100.00;55129.94;10464275;28;20355;-71
2024/01/11 04:07:15;;;;;;;0.10;0.10;;;;;;;-145.06;100.00;55123.88;10462874;28;20115;-71
2024/01/11 04:12:15;;;;;;;0.10;0.10;;;;;;;-145.06;100.00;55178.56;10465772;28;20025;-71
2024/01/11 04:17:16;;;;;;;0.00;0.00;;;;;;;-145.06;100.00;55184.66;10460488;28;20398;-71
2024/01/11 04:22:16;;;;;;;0.10;0.10;;;;;;;-145.06;100.00;55204.91;10465313;28;20486;-71
2024/01/11 04:27:16;;;;;;;0.00;0.00;;;;;;;-145.06;100.00;55180.59;10461618;28;20375;-71
2024/01/11 04:32:17;;;;;;;0.10;0.10;;;;;;;-145.06;100.00;55204.91;10447749;28;20427;-71
2024/01/11 04:37:18;;;;;;;0.10;0.10;;;;;;;-145.06;100.00;55192.75;10467235;28;20025;-71
2024/01/11 04:42:18;;;;;;;0.00;0.00;;;;;;;-145.06;100.00;55231.25;10461950;28;20382;-71
2024/01/11 04:47:19;;;;;;;0.00;0.00;;;;;;;-145.06;100.00;55200.84;10466601;28;20027;-71
2024/01/11 04:52:19;;;;;;;0.00;0.00;;;;;;;-145.06;100.00;55237.31;10449574;28;20029;-71
2024/01/11 04:57:19;;;;;;;0.00;0.00;;;;;;;-145.06;100.00;55229.22;10461334;28;20640;-71
2024/01/11 05:02:22;;;;;;;0.00;0.00;;;;;;;-145.06;100.00;55229.22;10440780;28;20311;-71
2024/01/11 05:07:23;;;;;;;0.00;0.00;;;;;;;-145.06;100.00;55239.34;10463183;28;20063;-71
2024/01/11 05:12:23;;;;;;;0.10;0.10;;;;;;;-145.06;100.00;55314.31;10458431;28;20111;-71
2024/01/11 05:17:25;;;;;;;0.00;0.00;;;;;;;-145.06;100.00;55290.00;10441363;28;20035;-71
2024/01/11 05:22:25;;;;;;;0.05;0.05;;;;;;;-145.06;100.00;55271.75;10461330;28;20023;-70
2024/01/11 05:27:25;;;;;;;0.10;0.10;;;;;;;-145.06;100.00;55267.72;10467751;28;20363;-70
2024/01/11 05:32:25;;;;;;;0.00;0.00;;;;;;;-145.06;100.00;55253.53;10463992;28;20076;-70
2024/01/11 05:37:26;;;;;;;0.00;0.00;;;;;;;-145.06;100.00;55261.63;10459162;28;20378;-70
2024/01/11 05:42:26;;;;;;;0.08;0.08;;;;;;;-145.06;100.00;55265.69;10455890;28;20625;-70
2024/01/11 05:47:26;;;;;;;0.00;0.00;;;;;;;-145.06;100.00;55271.75;10458721;28;20116;-70
2024/01/11 05:52:26;;;;;;;0.10;0.10;;;;;;;-145.06;100.00;55263.66;10455587;28;20025;-71
2024/01/11 05:57:27;;;;;;;0.10;0.10;;;;;;;-145.06;100.00;55245.41;10456832;28;20025;-71
2024/01/11 06:02:27;;;;;;;0.10;0.10;;;;;;;-145.06;100.00;55269.72;10455413;28;20836;-71
2024/01/11 06:07:29;;;;;;;0.00;0.00;;;;;;;-145.06;100.00;55298.09;10463464;28;20034;-71
2024/01/11 06:12:29;;;;;;;0.10;0.10;;;;;;;-145.06;100.00;55281.88;10454765;28;20377;-71
2024/01/11 06:17:29;;;;;;;0.00;0.00;;;;;;;-145.06;100.00;55249.47;10452556;28;20017;-71
2024/01/11 06:22:30;;;;;;;0.10;0.10;;;;;;;-145.06;100.00;55249.47;10459060;28;20013;-71
2024/01/11 06:27:30;;;;;;;0.10;0.10;;;;;;;-145.06;100.00;55219.09;10457158;28;20047;-71
2024/01/11 06:32:30;;;;;;;0.07;0.07;;;;;;;-145.06;100.00;55213.00;10459776;28;20284;-71
2024/01/11 06:37:31;;;;;;;0.00;0.00;;;;;;;-145.06;100.00;55225.16;10453261;28;20259;-70
2024/01/11 06:42:31;;;;;;;0.10;0.10;;;;;;;-145.06;100.00;55237.31;10457671;28;20032;-71
2024/01/11 06:47:31;;;;;;;0.10;0.10;;;;;;;-145.06;100.00;55190.72;10460435;28;20025;-71
2024/01/11 06:52:32;;;;;;;0.00;0.00;;;;;;;-145.06;100.00;55253.53;10455993;28;20021;-71
2024/01/11 06:57:32;;;;;;;0.00;0.00;;;;;;;-145.06;100.00;55221.13;10459856;28;20263;-71
2024/01/11 07:02:32;;;;;;;0.03;0.03;;;;;;;-145.06;100.00;55229.22;10445665;28;20017;-71
2024/01/11 07:07:33;;;;;;;0.00;0.00;;;;;;;-145.06;100.00;55217.06;10443196;28;20271;-71
2024/01/11 07:12:33;;;;;;;0.00;0.00;;;;;;;-145.06;100.00;55261.63;10463081;28;20494;-71
2024/01/11 07:17:33;;;;;;;0.00;0.00;;;;;;;-145.06;100.00;55208.97;10435925;28;20275;-71
2024/01/11 07:22:34;;;;;;;0.13;0.13;;;;;;;-145.06;100.00;55249.47;10457881;28;20012;-71
2024/01/11 07:27:35;;;;;;;0.00;0.00;;;;;;;-145.06;100.00;55206.94;10460496;28;20024;-71
2024/01/11 07:32:35;;;;;;;0.00;0.00;;;;;;;-145.06;100.00;55241.38;10465943;28;20027;-71
2024/01/11 07:37:37;;;;;;;0.00;0.00;;;;;;;-145.06;100.00;55208.97;10468550;28;20025;-71
2024/01/11 07:42:39;;;;;;;0.03;0.03;;;;;;;-145.06;100.00;55265.69;10467951;28;20112;-71
2024/01/11 07:47:39;;;;;;;0.00;0.00;;;;;;;-145.06;100.00;55225.16;10473819;28;20413;-71
2024/01/11 07:52:42;;;;;;;0.00;0.00;;;;;;;-145.06;100.00;55229.22;10461386;28;20029;-71
2024/01/11 07:57:43;;;;;;;0.00;0.00;;;;;;;-145.06;100.00;55231.25;10469807;28;20025;-71
2024/01/11 08:02:43;;;;;;;0.00;0.00;;;;;;;-145.06;100.00;55231.25;10469024;28;20020;-71
2024/01/11 08:07:43;;;;;;;0.00;0.00;;;;;;;-145.06;100.00;55253.53;10465919;28;20278;-70
2024/01/11 08:12:43;;;;;;;0.00;0.00;;;;;;;-145.06;100.00;55247.44;10460566;28;20026;-70
2024/01/11 08:17:45;;;;;;;0.00;0.00;;;;;;;-145.06;100.00;55239.34;10460053;28;20471;-71
2024/01/11 08:22:48;;;;;;;0.00;0.00;;;;;;;-145.06;100.00;55261.63;10471001;28;20103;-71
2024/01/11 08:27:48;;;;;;;0.00;0.00;;;;;;;-145.06;100.00;55273.78;10464281;28;20047;-71
2024/01/11 08:32:48;;;;;;;0.00;0.00;;;;;;;-145.06;100.00;55257.56;10466301;28;20013;-71
2024/01/11 08:37:49;;;;;;;0.00;0.00;;;;;;;-145.06;100.00;55283.91;10463261;28;20119;-70
2024/01/11 08:42:49;;;;;;;0.00;0.00;;;;;;;-145.06;100.00;55281.88;10454742;28;20150;-70
2024/01/11 08:47:49;;;;;;;0.00;0.00;;;;;;;-145.06;100.00;55279.84;10445975;28;20055;-71
2024/01/11 08:52:50;;;;;;;0.00;0.00;;;;;;;-145.06;100.00;55302.16;10464079;28;20272;-71
2024/01/11 08:57:50;;;;;;;0.08;0.08;;;;;;;-145.06;100.00;55290.00;10448278;28;20263;-71
2024/01/11 09:02:50;;;;;;;0.00;0.00;;;;;;;-145.06;100.00;55247.44;10466506;28;20016;-71
2024/01/11 09:07:50;;;;;;;0.00;0.00;;;;;;;-145.06;100.00;55237.31;10460736;28;20017;-71
2024/01/11 09:12:51;;;;;;;0.00;0.00;;;;;;;-145.06;100.00;55243.41;10461798;28;20074;-71
2024/01/11 09:17:51;;;;;;;0.00;0.00;;;;;;;-145.06;100.00;55241.38;10462182;28;20031;-71
2024/01/11 09:22:51;;;;;;;0.00;0.00;;;;;;;-145.06;100.00;55253.53;10460830;28;20433;-71
2024/01/11 09:27:52;;;;;;;0.00;0.00;;;;;;;-145.06;100.00;55253.53;10448698;28;20189;-71
2024/01/11 09:32:52;;;;;;;0.00;0.00;;;;;;;-145.06;100.00;55233.25;10469939;28;20035;-71
2024/01/11 09:37:53;;;;;;;0.00;0.00;;;;;;;-145.06;100.00;55235.28;10464703;28;20082;-71
2024/01/11 09:42:53;;;;;;;0.00;0.00;;;;;;;-145.06;100.00;55259.59;10465941;28;20016;-71
2024/01/11 09:47:54;;;;;;;0.00;0.00;;;;;;;-145.06;100.00;55245.41;10458137;28;20021;-71
2024/01/11 09:52:54;;;;;;;0.10;0.10;;;;;;;-145.06;100.00;55231.25;10462900;28;20023;-71
2024/01/11 09:57:59;;;;;;;0.00;0.00;;;;;;;-145.06;100.00;55192.75;10455646;28;20078;-71
2024/01/11 10:03:00;;;;;;;0.00;0.00;;;;;;;-145.06;100.00;55200.84;10461523;28;20016;-71
2024/01/11 10:08:00;;;;;;;0.00;0.00;;;;;;;-145.06;100.00;55182.63;10468374;28;20025;-71
2024/01/11 10:13:00;;;;;;;0.08;0.08;;;;;;;-145.06;100.00;55131.97;10465963;28;20035;-70
2024/01/11 10:18:01;;;;;;;0.00;0.00;;;;;;;-145.06;100.00;55136.03;10456333;28;20055;-71
2024/01/11 10:23:02;;;;;;;0.00;0.00;;;;;;;-145.06;100.00;55093.47;10458672;28;20104;-71
2024/01/11 10:28:03;;;;;;;0.00;0.00;;;;;;;-145.06;100.00;55134.00;10465720;28;20053;-70
2024/01/11 10:33:05;;;;;;;0.00;0.00;;;;;;;-145.06;100.00;55115.78;10469979;28;20057;-71
2024/01/11 10:38:09;;;;;;;0.00;0.00;;;;;;;-145.06;100.00;55071.19;10454845;28;20028;-71
2024/01/11 10:43:11;;;;;;;0.00;0.00;;;;;;;-145.06;100.00;55083.34;10458869;28;20031;-71
2024/01/11 10:48:14;;;;;;;0.00;0.00;;;;;;;-145.06;100.00;55099.56;10460193;28;20085;-71
2024/01/11 10:53:47;;;;;;;0.00;0.00;;;;;;;-145.06;100.00;55109.69;10454674;28;20406;-70
2024/01/11 10:58:49;;;;;;;0.00;0.00;;;;;;;-145.06;100.00;55050.94;10465617;28;20496;-71
2024/01/11 11:03:52;;;;;;;0.00;0.00;;;;;;;-145.06;100.00;55044.88;10465134;28;20024;-71
2024/01/11 11:08:53;;;;;;;0.00;0.00;;;;;;;-145.06;100.00;55006.38;10451486;28;20013;-71
2024/01/11 11:13:54;;;;;;;0.00;0.00;;;;;;;-145.06;100.00;55067.16;10464297;28;20410;-71
2024/01/11 11:18:55;;;;;;;0.00;0.00;;;;;;;-145.06;100.00;55030.69;10459718;28;20025;-71
2024/01/11 11:23:56;;;;;;;0.00;0.00;;;;;;;-145.06;100.00;55008.41;10452885;28;20021;-70
2024/01/11 11:28:57;;;;;;;0.00;0.00;;;;;;;-145.06;100.00;55018.53;10454624;28;20475;-71
2024/01/11 11:34:02;;;;;;;0.00;0.00;;;;;;;-145.06;100.00;55022.59;10454401;28;20359;-71
2024/01/11 11:39:02;;;;;;;0.00;0.00;;;;;;;-145.06;100.00;55002.31;10461412;28;20150;-71
2024/01/11 11:44:04;;;;;;;0.00;0.00;;;;;;;-145.06;100.00;54994.22;10456978;28;20059;-71
2024/01/11 11:49:04;;;;;;;0.00;0.00;;;;;;;-145.06;100.00;55016.50;10456392;28;20025;-71
2024/01/11 11:54:06;;;;;;;0.00;0.00;;;;;;;-145.06;100.00;54996.25;10455479;28;20021;-71
2024/01/11 11:59:08;;;;;;;0.00;0.00;;;;;;;-145.06;100.00;55042.84;10459918;28;20050;-71
2024/01/11 12:04:08;;;;;;;0.00;0.00;;;;;;;-145.06;100.00;55028.66;10460380;28;20032;-71
2024/01/11 12:09:08;;;;;;;0.00;0.00;;;;;;;-145.06;100.00;54996.25;10461180;28;20021;-71
2024/01/11 12:14:09;;;;;;;0.00;0.00;;;;;;;-145.06;100.00;55050.94;10453456;28;20029;-71
2024/01/11 12:19:09;;;;;;;0.00;0.00;;;;;;;-145.06;100.00;55026.63;10460132;28;20282;-71
2024/01/11 12:24:10;;;;;;;0.00;0.00;;;;;;;-145.06;100.00;55028.66;10469853;28;20264;-71
2024/01/11 12:29:10;;;;;;;0.00;0.00;;;;;;;-145.06;100.00;55042.84;10445972;28;20024;-71
2024/01/11 12:34:14;;;;;;;0.00;0.00;;;;;;;-145.06;100.00;55006.38;10466092;28;20028;-71
2024/01/11 12:39:16;;;;;;;0.00;0.00;;;;;;;-145.06;100.00;55018.53;10462035;28;20547;-71
2024/01/11 12:44:19;;;;;;;0.00;0.00;;;;;;;-145.06;100.00;55004.34;10460664;28;20144;-71
2024/01/11 12:49:22;;;;;;;0.00;0.00;;;;;;;-145.06;100.00;55006.38;10438941;28;20053;-71
2024/01/11 12:54:23;;;;;;;0.00;0.00;;;;;;;-145.06;100.00;54969.91;10456243;28;20440;-71
2024/01/11 12:59:26;;;;;;;0.00;0.00;;;;;;;-145.06;100.00;54998.28;10457020;28;20021;-71
2024/01/11 13:04:27;;;;;;;0.00;0.00;;;;;;;-145.06;100.00;54971.94;10457247;28;20017;-71
2024/01/11 13:09:28;;;;;;;0.00;0.00;;;;;;;-145.06;100.00;54947.63;10456548;28;20036;-71
2024/01/11 13:14:29;;;;;;;0.00;0.00;;;;;;;-145.06;100.00;54905.09;10459124;28;20033;-72
2024/01/11 13:19:29;;;;;;;0.00;0.00;;;;;;;-145.06;100.00;54925.34;10441637;28;20036;-71
2024/01/11 13:24:30;;;;;;;0.00;0.00;;;;;;;-145.06;100.00;54909.16;10437223;28;20382;-71
2024/01/11 13:29:30;;;;;;;0.00;0.00;;;;;;;-145.06;100.00;54913.19;10457103;28;20360;-71
2024/01/11 13:34:31;;;;;;;0.10;0.10;;;;;;;-145.06;100.00;54911.16;10455609;28;20021;-70
2024/01/11 13:39:31;;;;;;;0.00;0.00;;;;;;;-145.06;100.00;54927.38;10439477;28;20255;-71
2024/01/11 13:44:32;;;;;;;0.00;0.00;;;;;;;-145.06;100.00;54921.28;10455593;28;20479;-70
2024/01/11 13:49:34;;;;;;;0.00;0.00;;;;;;;-145.06;100.00;54929.41;10454318;28;20078;-71
2024/01/11 13:54:34;;;;;;;0.00;0.00;;;;;;;-145.06;100.00;54973.97;10453678;28;20355;-71
2024/01/11 13:59:35;;;;;;;0.00;0.00;;;;;;;-145.06;100.00;54953.72;10440044;28;20021;-71
2024/01/11 14:04:35;;;;;;;0.00;0.00;;;;;;;-145.06;100.00;54953.72;10456894;28;20040;-71
2024/01/11 14:09:36;;;;;;;0.00;0.00;;;;;;;-145.06;100.00;54969.91;10456148;28;20025;-71
2024/01/11 14:14:36;;;;;;;0.00;0.00;;;;;;;-145.06;100.00;54980.03;10452990;28;20595;-72
2024/01/11 14:19:36;;;;;;;0.03;0.03;;;;;;;-145.06;100.00;54998.28;10451571;28;20012;-72
2024/01/11 14:24:36;;;;;;;0.00;0.00;;;;;;;-145.06;100.00;54990.19;10454742;28;20017;-71
2024/01/11 14:29:37;;;;;;;0.00;0.00;;;;;;;-145.06;100.00;55014.47;10439158;28;20025;-70
2024/01/11 14:34:38;;;;;;;0.30;0.30;;;;;;;-145.06;100.00;55026.63;10453213;28;20510;-70
2024/01/11 14:39:39;;;;;;;0.00;0.00;;;;;;;-145.06;100.00;55012.47;10431842;28;20078;-70
2024/01/11 14:44:39;;;;;;;0.00;0.00;;;;;;;-145.06;100.00;55044.88;10451111;28;20029;-70
2024/01/11 14:49:40;;;;;;;0.00;0.00;;;;;;;-145.06;100.00;55087.41;10449782;28;20403;-70
2024/01/11 14:54:40;;;;;;;0.00;0.00;;;;;;;-145.06;100.00;55057.03;10452669;28;20527;-70
2024/01/11 14:59:41;;;;;;;0.00;0.00;;;;;;;-145.06;100.00;55127.94;10451127;28;20500;-70
2024/01/11 15:04:42;;;;;;;0.00;0.00;;;;;;;-145.06;100.00;55099.56;10448882;28;20390;-70
2024/01/11 15:09:42;;;;;;;0.00;0.00;;;;;;;-145.06;100.00;55107.66;10450827;28;20127;-70
2024/01/11 15:14:44;;;;;;;0.00;0.00;;;;;;;-145.06;100.00;55156.28;10452857;28;20055;-70
2024/01/11 15:19:45;;;;;;;0.00;0.00;;;;;;;-145.06;100.00;55162.38;10433678;28;20031;-70
2024/01/11 15:24:52;;;;;;;0.00;0.00;;;;;;;-145.06;100.00;55206.94;10452061;28;20028;-70
2024/01/11 15:29:53;;;;;;;0.00;0.00;;;;;;;-145.06;100.00;55164.38;10454342;28;20064;-70
2024/01/11 15:34:53;;;;;;;0.00;0.00;;;;;;;-145.06;100.00;55174.53;10452443;28;20454;-70
2024/01/11 15:39:54;;;;;;;0.00;0.00;;;;;;;-145.06;100.00;55210.97;10453439;28;20259;-70
2024/01/11 15:44:54;;;;;;;0.00;0.00;;;;;;;-145.06;100.00;55221.13;10454033;28;20017;-71
2024/01/11 15:49:54;;;;;;;0.00;0.00;;;;;;;-145.06;100.00;55229.22;10449946;28;20024;-70
2024/01/11 15:54:55;;;;;;;0.00;0.00;;;;;;;-145.06;100.00;55241.38;10459421;28;20017;-70
2024/01/11 15:59:55;;;;;;;0.00;0.00;;;;;;;-145.06;100.00;55251.50;10456665;28;20044;-70
2024/01/11 16:04:55;;;;;;;0.00;0.00;;;;;;;-145.06;100.00;55245.41;10461019;28;20317;-70
2024/01/11 16:09:56;;;;;;;0.00;0.00;;;;;;;-145.06;100.00;55271.75;10455067;28;20039;-70
2024/01/11 16:14:58;;;;;;;0.00;0.00;;;;;;;-145.06;100.00;55314.31;10457168;28;20756;-70
2024/01/11 16:19:58;;;;;;;0.00;0.00;;;;;;;-145.06;100.00;55302.16;10456440;28;20381;-70
2024/01/11 16:24:59;;;;;;;0.00;0.00;;;;;;;-145.06;100.00;55344.69;10440583;28;20146;-70
2024/01/11 16:29:59;;;;;;;0.00;0.00;;;;;;;-145.06;100.00;55330.50;10441338;28;20364;-70
2024/01/11 16:34:59;;;;;;;0.00;0.00;;;;;;;-145.06;100.00;55340.63;10461633;28;20055;-70
2024/01/11 16:40:00;;;;;;;0.00;0.00;;;;;;;-145.06;100.00;55377.09;10454859;28;20070;-70
2024/01/11 16:45:00;;;;;;;0.00;0.00;;;;;;;-145.06;100.00;55358.88;10454899;28;20592;-70
2024/01/11 16:50:00;;;;;;;0.00;0.00;;;;;;;-145.06;100.00;55379.13;10454721;28;20282;-70
2024/01/11 16:55:01;;;;;;;0.00;0.00;;;;;;;-145.06;100.00;55348.75;10452341;28;20270;-70
2024/01/11 17:00:02;;;;;;;0.00;0.00;;;;;;;-145.06;100.00;55393.31;10454048;28;20264;-70
2024/01/11 17:05:03;;;;;;;0.00;0.00;;;;;;;-145.06;100.00;55369.00;10459482;28;20021;-69
2024/01/11 17:10:04;;;;;;;0.00;0.00;;;;;;;-145.06;100.00;55391.28;10454761;28;20025;-70
2024/01/11 17:15:04;;;;;;;0.00;0.00;;;;;;;-145.06;100.00;55462.19;10448363;28;20053;-70
2024/01/11 17:20:06;;;;;;;0.00;0.00;;;;;;;-145.06;100.00;55468.28;10440381;28;20170;-70
2024/01/11 17:25:07;;;;;;;0.00;0.00;;;;;;;-145.06;100.00;55478.41;10452873;28;20027;-70
2024/01/11 17:30:08;;;;;;;0.00;0.00;;;;;;;-145.06;100.00;55512.84;10451820;28;20565;-70
2024/01/11 17:35:09;;;;;;;0.00;0.00;;;;;;;-145.06;100.00;55496.63;10454633;28;20021;-72
2024/01/11 17:40:09;;;;;;;0.00;0.00;;;;;;;-145.06;100.00;55539.19;10452504;28;20025;-71
2024/01/11 17:45:10;;;;;;;0.00;0.00;;;;;;;-145.06;100.00;55563.50;10451852;28;20283;-71
2024/01/11 17:50:10;;;;;;;0.00;0.00;;;;;;;-145.06;100.00;55565.53;10452047;28;20028;-72
2024/01/11 17:55:10;;;;;;;0.10;0.10;;;;;;;-145.06;100.00;55604.00;10451438;28;20275;-71
2024/01/11 18:00:12;;;;;;;0.00;0.00;;;;;;;-145.06;100.00;55585.78;10451762;28;20017;-72
2024/01/11 18:05:13;;;;;;;0.00;0.00;;;;;;;-145.06;100.00;55571.59;10453503;28;20036;-72
2024/01/11 18:10:17;;;;;;;0.00;0.00;;;;;;;-145.06;100.00;55602.00;10450910;28;20028;-72
2024/01/11 18:15:17;;;;;;;0.00;0.00;;;;;;;-145.06;100.00;55608.06;10447864;28;20044;-72
2024/01/11 18:20:18;;;;;;;0.00;0.00;;;;;;;-145.06;100.00;55630.34;10450653;28;20013;-72
2024/01/11 18:25:18;;;;;;;0.00;0.00;;;;;;;-145.06;100.00;55575.66;10458041;28;20308;-72
2024/01/11 18:30:18;;;;;;;0.00;0.00;;;;;;;-145.06;100.00;55608.06;10452594;28;20051;-72
2024/01/11 18:35:19;;;;;;;0.00;0.00;;;;;;;-145.06;100.00;55589.84;10460800;28;20028;-72
2024/01/11 18:40:19;;;;;;;0.00;0.00;;;;;;;-145.06;100.00;55616.16;10450049;28;20263;-72
2024/01/11 18:45:20;;;;;;;0.07;0.07;;;;;;;-145.06;100.00;55573.63;10459798;28;20021;-71
2024/01/11 18:50:20;;;;;;;0.00;0.00;;;;;;;-145.06;100.00;55599.97;10456085;28;20271;-72
2024/01/11 18:55:21;;;;;;;0.00;0.00;;;;;;;-145.06;100.00;55616.16;10455925;28;20021;-71
2024/01/11 19:00:21;;;;;;;0.00;0.00;;;;;;;-145.06;100.00;55638.44;10457361;28;20009;-71
2024/01/11 19:05:22;;;;;;;0.00;0.00;;;;;;;-145.06;100.00;55630.34;10467857;28;20024;-71
2024/01/11 19:10:23;;;;;;;0.00;0.00;;;;;;;-145.06;100.00;55634.41;10443729;28;20025;-71
2024/01/11 19:15:23;;;;;;;0.00;0.00;;;;;;;-145.06;100.00;55687.09;10474152;28;20366;-71
2024/01/11 19:20:24;;;;;;;0.00;0.00;;;;;;;-145.06;100.00;55678.97;10464055;28;20055;-71
2024/01/11 19:25:25;;;;;;;0.10;0.10;;;;;;;-145.06;100.00;55640.47;10459706;28;20021;-71
2024/01/11 19:30:26;;;;;;;0.00;0.00;;;;;;;-145.06;100.00;55685.06;10476420;28;20021;-71
2024/01/11 19:35:27;;;;;;;0.00;0.00;;;;;;;-145.06;100.00;55666.81;10465744;28;20021;-71
2024/01/11 19:40:27;;;;;;;0.00;0.00;;;;;;;-145.06;100.00;55640.47;10455831;28;20534;-71
2024/01/11 19:45:27;;;;;;;0.00;0.00;;;;;;;-145.06;100.00;55660.75;10473255;28;20406;-71
2024/01/11 19:50:30;;;;;;;0.00;0.00;;;;;;;-145.06;100.00;55683.03;10465743;28;20028;-71
2024/01/11 19:55:32;;;;;;;0.00;0.00;;;;;;;-145.06;100.00;55683.03;10475475;28;20012;-71
2024/01/11 20:00:35;;;;;;;0.00;0.00;;;;;;;-145.06;100.00;55660.75;10469987;28;20024;-71
2024/01/11 20:05:35;;;;;;;0.10;0.10;;;;;;;-145.06;100.00;55660.75;10467337;28;20040;-71
2024/01/11 20:10:35;;;;;;;0.00;0.00;;;;;;;-145.06;100.00;55674.94;10474066;28;20021;-71
2024/01/11 20:15:36;;;;;;;0.00;0.00;;;;;;;-145.06;100.00;55717.47;10458602;28;20029;-71
2024/01/11 20:20:37;;;;;;;0.00;0.00;;;;;;;-145.06;100.00;55729.63;10464508;28;20288;-71
2024/01/11 20:25:37;;;;;;;0.00;0.00;;;;;;;-145.06;100.00;55739.75;10461453;28;20123;-71
2024/01/11 20:30:37;;;;;;;0.00;0.00;;;;;;;-145.06;100.00;55743.81;10466360;28;20279;-71
2024/01/11 20:35:41;;;;;;;0.00;0.00;;;;;;;-145.06;100.00;55747.88;10464384;28;20043;-71
2024/01/11 20:40:42;;;;;;;0.00;0.00;;;;;;;-145.06;100.00;55751.91;10465774;28;20385;-71
2024/01/11 20:45:43;;;;;;;0.10;0.10;;;;;;;-145.06;100.00;55792.44;10471828;28;20107;-72
2024/01/11 20:50:43;;;;;;;0.00;0.00;;;;;;;-145.06;100.00;55768.13;10473599;28;20549;-72
2024/01/11 20:55:44;;;;;;;0.00;0.00;;;;;;;-145.06;100.00;55760.03;10475450;28;20112;-71
2024/01/11 21:00:44;;;;;;;0.00;0.00;;;;;;;-145.06;100.00;55778.25;10457110;28;20042;-72
2024/01/11 21:05:48;;;;;;;0.10;0.10;;;;;;;-145.06;100.00;55760.03;10444535;28;20029;-72
2024/01/11 21:10:48;;;;;;;0.00;0.00;;;;;;;-145.06;100.00;55753.94;10473476;28;20021;-71
2024/01/11 21:15:48;;;;;;;0.00;0.00;;;;;;;-145.06;100.00;55731.66;10461829;28;20039;-72
2024/01/11 21:20:49;;;;;;;0.00;0.00;;;;;;;-145.06;100.00;55719.50;10466246;28;20012;-72
2024/01/11 21:25:50;;;;;;;0.00;0.00;;;;;;;-145.06;100.00;55780.28;10469111;28;20351;-72
2024/01/11 21:30:50;;;;;;;0.10;0.10;;;;;;;-145.06;100.00;55745.84;10461344;28;20024;-72
2024/01/11 21:35:51;;;;;;;0.05;0.05;;;;;;;-145.06;100.00;55743.81;10458118;28;20352;-72
2024/01/11 21:40:51;;;;;;;0.00;0.00;;;;;;;-145.06;100.00;55703.28;10465006;28;20084;-72
2024/01/11 21:45:52;;;;;;;0.00;0.00;;;;;;;-145.06;100.00;55719.50;10456908;28;20363;-72
2024/01/11 21:50:52;;;;;;;0.03;0.03;;;;;;;-145.06;100.00;55727.59;10456787;28;20029;-72
2024/01/11 21:55:52;;;;;;;0.00;0.00;;;;;;;-145.06;100.00;55695.19;10461944;28;20044;-71
2024/01/11 22:00:55;;;;;;;0.00;0.00;;;;;;;-145.06;100.00;55642.50;10435865;28;20017;-71
2024/01/11 22:05:55;;;;;;;0.00;0.00;;;;;;;-145.06;100.00;55687.09;10462740;28;20073;-71
2024/01/11 22:10:56;;;;;;;0.00;0.00;;;;;;;-145.06;100.00;55727.59;10461490;28;20532;-71
2024/01/11 22:15:56;;;;;;;0.10;0.10;;;;;;;-145.06;100.00;55674.94;10467806;28;20267;-71
2024/01/11 22:20:57;;;;;;;0.10;0.10;;;;;;;-145.06;100.00;55618.19;10459125;28;20481;-71
2024/01/11 22:25:57;;;;;;;0.10;0.10;;;;;;;-145.06;100.00;55612.13;10464800;28;20349;-71
2024/01/11 22:30:57;;;;;;;0.10;0.10;;;;;;;-145.06;100.00;55636.44;10462071;28;21086;-71